Terminal Aerodrome Forecast
Issued by NWS King Salmon, AK

Home | Current Version | Previous Version | Text Only | Print | Product List | Glossary On
Versions: 1 2 3 4 5 6 7 8 9 10 11 12 13 14
000
FTAK31 PANC 282325
TAFAKN
TAF
PAKN 282325Z 2900/2924 05012G20KT P6SM VCSH BKN050 BKN080
     FM290500 05006KT P6SM VCSH BKN050 BKN090
     FM291100 12008KT P6SM VCSH BKN050 BKN100
     FM291800 13015G22KT P6SM VCSH BKN050 BKN100=

USA.gov is the U.S. government's official web portal to all federal, state and local government web resources and services.